My Meet Scores
Alyssa Evans, Gym Kinetics Gymnastics - MyMeetScores.com
Top100 | Top Teams | Upcoming Meets | Completed Meets | Latest | Add Scores | Help| Support | Bookmark and Share

Alyssa Evans, Gym Kinetics Gymnastics
Personal Bests
LevelVault BarsBeamFloorAA
XG9.4009.700 9.6759.55037.750
XP9.1258.700 9.4009.37535.925
XS9.2259.650 9.6259.50037.975
Meet Scores
Date Meet Team Session Level Division Vault Bars Beam Floor AA
2020-02-21 Kinetic Classic Gym Kinetics Gymnastics 11 XP Middle 9.125 37T 8.625 32 8.800 24 9.375 18T 35.925 27
2020-01-17 2020 Bravo Classic Gym Kinetics Gymnastics 1A XP Jr 9.000 14 8.700 12 9.150 6T 9.075 12 35.925 10
2020-01-10 Leenda's Island Adventure Gym Kinetics Gymnastics GG5 XP 13 Year Ol 8.800 8T 8.200 15 9.400 3 9.200 7 35.600 7
2019-12-20 Aspire Classic - 2019 Gym Kinetics Gymnastics 4B XP Middle 8.800 4T 8.400 11 9.250 2 9.325 7T 35.775 6
2019-12-06 Ultimate Wish Classic Gym Kinetics Gymnastics 4 XP SR 8.700 14T 8.050 13T 9.325 1 9.025 10 35.100 8
2019-04-05 2019 Illinois XG, XP, XD State Championships Gym Kinetics Gymnastics 9 XG Sr A 9.300 5T 9.500 6T 9.525 6T 9.425 8 37.750 6
2019-03-01 NGCD Academy's 2019 Flip'r Invitational Gym Kinetics Gymnastics 2 XG Sr 9.300 3T 9.575 3 8.825 10 9.225 7T 36.925 5T
2019-02-23 Kinetic Classic 2019 Gym Kinetics Gymnastics 1 XG Older 8.900 17T 9.050 11T 9.675 1 9.300 5T 36.925 4
2019-02-08 Midwest Twisters Harley Meet Womens Gym Kinetics Gymnastics S02 XG 13 yrs. 9.200 2 8.900 5 9.500 1 9.250 4 36.850 2
2019-01-18 2019 Bravo Classic Gym Kinetics Gymnastics 1A XG Jr 8.725 5 9.275 4T 9.400 3 9.175 8 36.575 5
2019-01-11 St Jude Benefit Meet Gym Kinetics Gymnastics 4C XG Sr A 9.375 2 9.500 2T 9.300 1T 9.500 1 37.675 1
2018-12-14 2018 Aspire Classic Gym Kinetics Gymnastics 11A XG Middle 9.050 5 9.650 2 9.375 1T 9.550 3 37.625 1
2018-04-06 XCEL State Championships Gym Kinetics Gymnastics 4B XG Jr A 8.525 20T 9.650 1 9.000 20T 9.300 13T 36.475 7
2018-02-23 Kinetic Classic Gym Kinetics Gymnastics 6 XG Younger 9.400 4T 9.050 40T 9.675 1 9.425 23T 37.550 4
2018-02-03 Midwest Games Gym Kinetics Gymnastics 2 XG JR 9.150 1 9.000 4 9.200 3 9.375 3 36.725 1
2018-01-19 2018 Bravo Classic Gym Kinetics Gymnastics 1B XG Jr 9.300 6 9.600 1T 9.350 4 9.100 5T 37.350 2
2017-12-15 2017 Aspire Classic Gym Kinetics Gymnastics 10B XG Jr B 8.350 11 9.700 1 9.200 2 9.050 10 36.300 3T
2017-04-21 2017 Illinois Xcel State Championships Gym Kinetics Gymnastics 6 XS Jr B 9.225 7 9.650 2T 9.600 2T 9.500 4 37.975 5
2017-02-24 Kinetic Classic Gym Kinetics Gymnastics 8 XS All Ages 8.600 30T 9.500 16T 9.625 15T 9.400 5T 37.125 13
2017-01-13 St Jude Benefit Meet Gym Kinetics Gymnastics 6A XS Jr B 8.200 12 9.650 2T 9.500 3 8.950 7 36.300 4
Get your scores on
a t-shirt, pin, or hoodie

www.lazysuits.com